createdAt,value
2023-05-22T00:03:21.203Z,1011.7
2023-05-22T00:09:26.613Z,1011.7
2023-05-22T00:15:31.932Z,1011.6
2023-05-22T00:21:38.112Z,1011.7
2023-05-22T00:27:43.529Z,1011.7
2023-05-22T00:33:49.271Z,1011.7
2023-05-22T00:39:55.846Z,1011.7
2023-05-22T00:46:00.837Z,1011.7
2023-05-22T00:52:07.016Z,1011.6
2023-05-22T00:58:12.775Z,1011.6
2023-05-22T01:04:18.451Z,1011.6
2023-05-22T01:10:24.410Z,1011.6
2023-05-22T01:16:30.556Z,1011.7
2023-05-22T01:22:35.875Z,1011.8
2023-05-22T01:28:41.096Z,1011.8
2023-05-22T01:34:46.626Z,1011.9
2023-05-22T01:40:52.247Z,1011.9
2023-05-22T01:46:57.243Z,1011.9
2023-05-22T01:53:03.134Z,1011.9
2023-05-22T01:59:08.795Z,1011.9
2023-05-22T02:05:14.295Z,1012
2023-05-22T02:11:20.750Z,1012
2023-05-22T02:17:25.493Z,1012
2023-05-22T02:23:31.846Z,1012
2023-05-22T02:29:37.495Z,1012
2023-05-22T02:35:42.187Z,1012
2023-05-22T02:41:48.345Z,1012
2023-05-22T02:47:54.314Z,1012
2023-05-22T02:54:00.558Z,1012
2023-05-22T03:00:05.246Z,1012
2023-05-22T03:06:11.220Z,1012
2023-05-22T03:12:16.905Z,1011.9
2023-05-22T03:18:23.414Z,1012
2023-05-22T03:24:32.271Z,1012
2023-05-22T03:30:37.901Z,1012
2023-05-22T03:36:44.078Z,1012.1
2023-05-22T03:42:49.792Z,1012.1
2023-05-22T03:48:55.178Z,1012.1
2023-05-22T03:55:01.224Z,1012.1
2023-05-22T04:01:05.951Z,1012.1
2023-05-22T04:07:11.485Z,1012.2
2023-05-22T04:13:17.306Z,1012.2
2023-05-22T04:19:23.294Z,1012.2
2023-05-22T04:25:28.800Z,1012.2
2023-05-22T04:31:34.595Z,1012.2
2023-05-22T04:37:40.802Z,1012.3
2023-05-22T04:43:46.223Z,1012.3
2023-05-22T04:49:51.738Z,1012.3
2023-05-22T04:55:57.772Z,1012.3
2023-05-22T05:02:03.465Z,1012.4
2023-05-22T05:08:09.461Z,1012.4
2023-05-22T05:14:15.234Z,1012.4
2023-05-22T05:20:21.016Z,1012.4
2023-05-22T05:26:26.826Z,1012.4
2023-05-22T05:32:32.384Z,1012.4
2023-05-22T05:38:38.000Z,1012.4
2023-05-22T05:44:43.303Z,1012.4
2023-05-22T05:50:49.511Z,1012.5
2023-05-22T05:56:54.543Z,1012.5
2023-05-22T06:02:59.955Z,1012.5
2023-05-22T06:09:06.440Z,1012.6
2023-05-22T06:15:11.464Z,1012.6
2023-05-22T06:21:17.376Z,1012.6
2023-05-22T06:27:22.198Z,1012.5
2023-05-22T06:33:27.749Z,1012.6
2023-05-22T06:39:33.736Z,1012.6
2023-05-22T06:45:39.484Z,1012.6
2023-05-22T06:51:45.422Z,1012.6
2023-05-22T06:57:50.824Z,1012.6
2023-05-22T07:03:57.173Z,1012.6
2023-05-22T07:10:03.377Z,1012.7
2023-05-22T07:16:09.374Z,1012.7
2023-05-22T07:22:15.546Z,1012.7
2023-05-22T07:28:21.534Z,1012.8
2023-05-22T07:34:27.921Z,1012.7
2023-05-22T07:40:34.586Z,1012.8
2023-05-22T07:46:40.759Z,1012.7
2023-05-22T07:52:46.764Z,1012.8
2023-05-22T07:58:52.864Z,1012.7
2023-05-22T08:04:58.765Z,1012.8
2023-05-22T08:11:06.933Z,1012.8
2023-05-22T08:17:13.535Z,1012.8
2023-05-22T08:23:19.671Z,1012.8
2023-05-22T08:29:25.439Z,1012.7
2023-05-22T08:35:31.822Z,1012.8
2023-05-22T08:41:37.829Z,1012.7
2023-05-22T08:47:44.032Z,1012.7
2023-05-22T08:53:50.071Z,1012.6
2023-05-22T08:59:55.588Z,1012.6
2023-05-22T09:06:01.980Z,1012.5
2023-05-22T09:12:07.829Z,1012.6
2023-05-22T09:18:14.156Z,1012.5
2023-05-22T09:24:20.175Z,1012.5
2023-05-22T09:30:26.329Z,1012.5
2023-05-22T09:36:32.495Z,1012.6
2023-05-22T09:42:38.527Z,1012.6
2023-05-22T09:48:44.885Z,1012.6
2023-05-22T09:54:51.049Z,1012.6
2023-05-22T10:00:56.625Z,1012.6
2023-05-22T10:07:02.691Z,1012.6
2023-05-22T10:13:08.384Z,1012.6
2023-05-22T10:19:14.396Z,1012.5
2023-05-22T10:25:20.965Z,1012.5
2023-05-22T10:31:26.754Z,1012.4
2023-05-22T10:37:32.729Z,1012.4
2023-05-22T10:43:38.926Z,1012.4
2023-05-22T10:49:44.744Z,1012.4
2023-05-22T10:55:51.103Z,1012.4
2023-05-22T11:01:57.000Z,1012.3
2023-05-22T11:08:02.453Z,1012.3
2023-05-22T11:14:07.861Z,1012.3
2023-05-22T11:20:14.901Z,1012.3
2023-05-22T11:26:21.204Z,1012.2
2023-05-22T11:32:28.466Z,1012.2
2023-05-22T11:38:34.402Z,1012.2
2023-05-22T11:44:40.233Z,1012.2
2023-05-22T11:50:46.434Z,1012.1
2023-05-22T11:56:53.020Z,1012
2023-05-22T12:03:01.883Z,1012
2023-05-22T12:09:08.004Z,1012
2023-05-22T12:15:14.185Z,1012
2023-05-22T12:21:19.600Z,1012
2023-05-22T12:27:25.375Z,1011.9
2023-05-22T12:33:31.316Z,1012
2023-05-22T12:39:36.899Z,1011.9
2023-05-22T12:45:42.854Z,1011.8
2023-05-22T12:51:48.851Z,1011.8
2023-05-22T12:57:55.229Z,1011.8
2023-05-22T13:04:00.808Z,1011.7
2023-05-22T13:10:06.854Z,1011.7
2023-05-22T13:16:12.637Z,1011.5
2023-05-22T13:22:18.399Z,1011.5
2023-05-22T13:28:24.757Z,1011.6
2023-05-22T13:34:30.189Z,1011.6
2023-05-22T13:40:35.696Z,1011.5
2023-05-22T13:46:42.567Z,1011.4
2023-05-22T13:52:48.058Z,1011.5
2023-05-22T13:58:53.841Z,1011.5
2023-05-22T14:04:58.877Z,1011.4
2023-05-22T14:11:04.381Z,1011.3
2023-05-22T14:17:10.155Z,1011.2
2023-05-22T14:23:16.183Z,1011.2
2023-05-22T14:29:21.764Z,1011.3
2023-05-22T14:35:27.287Z,1011.5
2023-05-22T14:41:32.638Z,1011.4
2023-05-22T14:47:38.287Z,1011.5
2023-05-22T14:53:44.064Z,1011.7
2023-05-22T14:59:49.637Z,1011.7
2023-05-22T15:05:55.157Z,1011.8
2023-05-22T15:12:01.026Z,1011.9
2023-05-22T15:18:06.732Z,1011.8
2023-05-22T15:24:12.737Z,1011.8
2023-05-22T15:30:17.598Z,1011.8
2023-05-22T15:36:26.908Z,1011.9
2023-05-22T15:42:32.898Z,1011.8
2023-05-22T15:48:38.300Z,1011.6
2023-05-22T15:54:43.878Z,1011.5
2023-05-22T16:00:49.892Z,1011.6
2023-05-22T16:06:55.386Z,1011.5
2023-05-22T16:13:01.347Z,1011.5
2023-05-22T16:19:06.579Z,1011.5
2023-05-22T16:25:12.297Z,1011.5
2023-05-22T16:31:20.970Z,1011.6
2023-05-22T16:37:26.986Z,1011.5
2023-05-22T16:43:32.296Z,1011.4
2023-05-22T16:49:38.073Z,1011.5
2023-05-22T16:55:44.276Z,1011.4
2023-05-22T17:01:49.760Z,1011.4
2023-05-22T17:07:55.462Z,1011.4
2023-05-22T17:14:01.649Z,1011.3
2023-05-22T17:20:07.176Z,1011.3
2023-05-22T17:26:13.256Z,1011.4
2023-05-22T17:32:18.526Z,1011.4
2023-05-22T17:38:24.500Z,1011.5
2023-05-22T17:44:30.074Z,1011.5
2023-05-22T17:50:36.296Z,1011.6
2023-05-22T17:56:42.038Z,1011.6
2023-05-22T18:02:48.454Z,1011.6
2023-05-22T18:08:54.237Z,1011.6
2023-05-22T18:15:00.212Z,1011.6
2023-05-22T18:21:06.186Z,1011.7
2023-05-22T18:27:12.143Z,1011.7
2023-05-22T18:33:17.415Z,1011.7
2023-05-22T18:39:22.900Z,1011.8
2023-05-22T18:45:28.308Z,1011.8
2023-05-22T18:51:34.461Z,1011.8
2023-05-22T18:57:40.076Z,1011.9
2023-05-22T19:03:46.220Z,1012
2023-05-22T19:09:52.210Z,1012.1
2023-05-22T19:15:58.185Z,1012.1
2023-05-22T19:22:04.006Z,1012.1
2023-05-22T19:28:09.548Z,1012.2
2023-05-22T19:34:15.197Z,1012.3
2023-05-22T19:40:20.704Z,1012.5
2023-05-22T19:46:26.982Z,1012.6
2023-05-22T19:52:33.862Z,1012.6
2023-05-22T19:58:39.444Z,1012.6
2023-05-22T20:04:45.455Z,1012.6
2023-05-22T20:10:51.399Z,1012.6
2023-05-22T20:16:57.405Z,1012.7
2023-05-22T20:23:03.423Z,1012.7
2023-05-22T20:29:09.555Z,1012.7
2023-05-22T20:35:15.633Z,1012.8
2023-05-22T20:41:21.517Z,1012.7
2023-05-22T20:47:27.333Z,1012.7
2023-05-22T20:53:33.143Z,1012.7
2023-05-22T20:59:39.084Z,1012.7
2023-05-22T21:05:45.104Z,1012.7
2023-05-22T21:11:51.020Z,1012.7
2023-05-22T21:17:56.878Z,1012.7
2023-05-22T21:24:03.221Z,1012.7
2023-05-22T21:30:08.656Z,1012.6
2023-05-22T21:36:14.030Z,1012.6
2023-05-22T21:42:20.125Z,1012.6
2023-05-22T21:48:26.116Z,1012.6
2023-05-22T21:54:31.915Z,1012.6
2023-05-22T22:00:38.233Z,1012.6
2023-05-22T22:06:45.088Z,1012.7
2023-05-22T22:12:49.951Z,1012.8
2023-05-22T22:18:56.254Z,1012.7
2023-05-22T22:25:02.218Z,1012.7
2023-05-22T22:31:08.427Z,1012.8
2023-05-22T22:37:14.659Z,1012.8
2023-05-22T22:43:20.197Z,1012.8
2023-05-22T22:49:26.339Z,1012.8
2023-05-22T22:55:31.556Z,1012.8
2023-05-22T23:01:37.783Z,1012.8
2023-05-22T23:07:43.371Z,1012.8
2023-05-22T23:13:49.488Z,1012.8
2023-05-22T23:19:55.449Z,1012.8
2023-05-22T23:26:01.032Z,1012.9
2023-05-22T23:32:07.013Z,1012.9
2023-05-22T23:38:12.244Z,1012.9
2023-05-22T23:44:17.751Z,1012.9
2023-05-22T23:50:23.915Z,1012.9
2023-05-22T23:56:29.553Z,1012.9
